createdAt,value
2022-10-19T00:00:00.049Z,102146.44
2022-10-19T00:02:27.750Z,102150.56
2022-10-19T00:04:55.546Z,102148.94
2022-10-19T00:07:23.223Z,102145.22
2022-10-19T00:09:52.334Z,102148.22
2022-10-19T00:12:20.004Z,102151.66
2022-10-19T00:14:47.737Z,102149.03
2022-10-19T00:17:15.387Z,102157.56
2022-10-19T00:19:43.162Z,102156.16
2022-10-19T00:22:13.171Z,102149.03
2022-10-19T00:24:41.894Z,102155.97
2022-10-19T00:27:10.990Z,102149.25
2022-10-19T00:29:39.473Z,102151.59
2022-10-19T00:32:07.278Z,102149.25
2022-10-19T00:34:34.921Z,102146.41
2022-10-19T00:37:02.638Z,102142.47
2022-10-19T00:39:30.285Z,102144.19
2022-10-19T00:41:57.906Z,102147.94
2022-10-19T00:45:02.590Z,102152.88
2022-10-19T00:47:30.865Z,102147.63
2022-10-19T00:49:59.558Z,102150.34
2022-10-19T00:52:28.551Z,102150.34
2022-10-19T00:54:58.943Z,102147.25
2022-10-19T00:57:30.510Z,102136.38
2022-10-19T00:59:59.950Z,102148.47
2022-10-19T01:02:28.947Z,102152.06
2022-10-19T01:04:57.062Z,102148.66
2022-10-19T01:07:26.135Z,102152.88
2022-10-19T01:09:54.310Z,102148.31
2022-10-19T01:12:41.413Z,102147.91
2022-10-19T01:15:22.969Z,102138.22
2022-10-19T01:18:03.350Z,102140.06
2022-10-19T01:20:47.280Z,102143.47
2022-10-19T01:23:39.220Z,102131.25
2022-10-19T01:26:21.427Z,102137.31
2022-10-19T01:29:00.587Z,102139.34
2022-10-19T01:31:38.951Z,102141.78
2022-10-19T01:34:13.191Z,102148.25
2022-10-19T01:36:44.842Z,102143.00
2022-10-19T01:39:19.534Z,102142.84
2022-10-19T01:41:55.836Z,102143.88
2022-10-19T01:44:30.409Z,102144.22
2022-10-19T01:47:04.997Z,102140.81
2022-10-19T01:49:42.372Z,102139.41
2022-10-19T01:52:15.369Z,102150.50
2022-10-19T01:54:45.940Z,102151.50
2022-10-19T01:57:18.869Z,102150.34
2022-10-19T01:59:48.879Z,102145.72
2022-10-19T02:02:18.983Z,102144.72
2022-10-19T02:04:50.007Z,102146.94
2022-10-19T02:07:17.898Z,102152.56
2022-10-19T02:09:45.562Z,102153.31
2022-10-19T02:12:14.214Z,102159.75
2022-10-19T02:14:45.429Z,102153.94
2022-10-19T02:17:16.712Z,102159.75
2022-10-19T02:19:45.771Z,102147.06
2022-10-19T02:22:14.196Z,102146.69
2022-10-19T02:24:41.884Z,102152.63
2022-10-19T02:27:10.405Z,102143.78
2022-10-19T02:29:39.415Z,102147.88
2022-10-19T02:32:09.904Z,102146.69
2022-10-19T02:34:38.276Z,102142.88
2022-10-19T02:37:07.823Z,102150.34
2022-10-19T02:39:35.498Z,102142.69
2022-10-19T02:42:08.771Z,102141.50
2022-10-19T02:44:41.971Z,102152.19
2022-10-19T02:47:14.278Z,102153.88
2022-10-19T02:49:44.092Z,102154.72
2022-10-19T02:52:14.633Z,102152.66
2022-10-19T02:54:44.549Z,102154.34
2022-10-19T02:57:17.273Z,102148.56
2022-10-19T02:59:44.992Z,102157.13
2022-10-19T03:02:12.854Z,102150.50
2022-10-19T03:04:41.556Z,102158.78
2022-10-19T03:07:10.413Z,102171.22
2022-10-19T03:09:39.357Z,102165.59
2022-10-19T03:12:07.593Z,102157.13
2022-10-19T03:14:35.325Z,102161.75
2022-10-19T03:17:03.372Z,102159.66
2022-10-19T03:19:31.256Z,102168.34
2022-10-19T03:21:59.383Z,102163.41
2022-10-19T03:24:27.233Z,102156.84
2022-10-19T03:26:56.232Z,102164.50
2022-10-19T03:29:24.041Z,102159.88
2022-10-19T03:31:51.691Z,102156.16
2022-10-19T03:34:19.359Z,102157.13
2022-10-19T03:36:47.031Z,102158.28
2022-10-19T03:39:16.680Z,102164.59
2022-10-19T03:41:45.086Z,102161.50
2022-10-19T03:44:14.072Z,102163.25
2022-10-19T03:46:41.894Z,102161.88
2022-10-19T03:49:10.244Z,102167.94
2022-10-19T03:51:38.211Z,102161.88
2022-10-19T03:54:07.357Z,102172.44
2022-10-19T03:56:36.794Z,102176.50
2022-10-19T03:59:06.591Z,102177.19
2022-10-19T04:01:38.755Z,102171.03
2022-10-19T04:04:10.312Z,102172.19
2022-10-19T04:06:40.740Z,102177.34
2022-10-19T04:09:10.269Z,102177.88
2022-10-19T04:11:38.652Z,102174.19
2022-10-19T04:14:06.558Z,102174.31
2022-10-19T04:16:35.762Z,102173.47
2022-10-19T04:19:04.519Z,102182.28
2022-10-19T04:21:33.670Z,102173.47
2022-10-19T04:24:03.724Z,102171.41
2022-10-19T04:26:32.014Z,102173.47
2022-10-19T04:29:00.057Z,102171.41
2022-10-19T04:31:28.722Z,102170.41
2022-10-19T04:33:58.072Z,102168.69
2022-10-19T04:36:25.896Z,102172.44
2022-10-19T04:38:53.612Z,102172.78
2022-10-19T04:41:22.482Z,102172.44
2022-10-19T04:43:50.997Z,102180.59
2022-10-19T04:46:20.264Z,102185.03
2022-10-19T04:48:49.319Z,102181.28
2022-10-19T04:51:19.759Z,102185.66
2022-10-19T04:53:48.020Z,102184.47
2022-10-19T04:56:18.200Z,102181.22
2022-10-19T04:58:46.467Z,102183.88
2022-10-19T05:01:16.054Z,102181.09
2022-10-19T05:03:44.063Z,102191.25
2022-10-19T05:06:12.770Z,102185.81
2022-10-19T05:08:42.106Z,102192.47
2022-10-19T05:11:12.512Z,102181.28
2022-10-19T05:13:40.156Z,102185.19
2022-10-19T05:16:12.161Z,102186.41
2022-10-19T05:18:40.335Z,102187.63
2022-10-19T05:21:09.983Z,102183.19
2022-10-19T05:23:37.962Z,102191.72
2022-10-19T05:26:08.712Z,102185.59
2022-10-19T05:28:37.349Z,102178.66
2022-10-19T05:31:10.394Z,102186.66
2022-10-19T05:33:39.102Z,102184.28
2022-10-19T05:36:18.560Z,102179.84
2022-10-19T05:38:47.792Z,102177.50
2022-10-19T05:41:17.305Z,102182.28
2022-10-19T05:43:45.586Z,102182.28
2022-10-19T05:46:17.445Z,102180.59
2022-10-19T05:48:46.118Z,102185.47
2022-10-19T05:51:16.127Z,102189.91
2022-10-19T05:53:44.149Z,102188.38
2022-10-19T05:56:18.085Z,102190.47
2022-10-19T05:58:46.260Z,102181.81
2022-10-19T06:01:14.844Z,102186.06
2022-10-19T06:03:42.996Z,102184.00
2022-10-19T06:06:11.292Z,102187.41
2022-10-19T06:08:39.872Z,102187.78
2022-10-19T06:11:09.146Z,102187.78
2022-10-19T06:13:38.981Z,102190.00
2022-10-19T06:16:08.695Z,102187.28
2022-10-19T06:18:36.440Z,102183.59
2022-10-19T06:21:05.193Z,102186.69
2022-10-19T06:23:33.385Z,102190.47
2022-10-19T06:26:03.576Z,102194.72
2022-10-19T06:28:31.392Z,102190.75
2022-10-19T06:31:00.711Z,102199.59
2022-10-19T06:33:29.954Z,102194.03
2022-10-19T06:35:57.678Z,102204.94
2022-10-19T06:38:25.473Z,102209.19
2022-10-19T06:40:53.167Z,102203.56
2022-10-19T06:43:20.845Z,102214.25
2022-10-19T06:45:48.551Z,102224.44
2022-10-19T06:48:17.581Z,102227.00
2022-10-19T06:50:45.330Z,102226.31
2022-10-19T06:53:13.080Z,102231.06
2022-10-19T06:55:41.050Z,102233.28
2022-10-19T06:58:08.752Z,102229.19
2022-10-19T07:00:36.472Z,102229.00
2022-10-19T07:03:04.220Z,102231.94
2022-10-19T07:05:33.314Z,102234.66
2022-10-19T07:08:01.005Z,102227.66
2022-10-19T07:10:28.734Z,102227.84
2022-10-19T07:12:57.373Z,102232.78
2022-10-19T07:15:25.129Z,102241.41
2022-10-19T07:17:53.935Z,102243.78
2022-10-19T07:20:21.611Z,102236.19
2022-10-19T07:22:50.695Z,102235.16
2022-10-19T07:25:18.355Z,102240.59
2022-10-19T07:27:46.016Z,102238.72
2022-10-19T07:30:13.671Z,102250.44
2022-10-19T07:32:45.957Z,102245.00
2022-10-19T07:35:15.226Z,102247.38
2022-10-19T07:37:42.952Z,102250.44
2022-10-19T07:40:13.821Z,102243.78
2022-10-19T07:42:41.623Z,102250.41
2022-10-19T07:45:10.046Z,102252.63
2022-10-19T07:47:37.784Z,102258.91
2022-10-19T07:50:06.245Z,102254.84
2022-10-19T07:52:36.705Z,102259.78
2022-10-19T07:55:05.282Z,102265.72
2022-10-19T07:57:34.316Z,102267.06
2022-10-19T08:00:01.996Z,102260.09
2022-10-19T08:02:39.485Z,102272.31
2022-10-19T08:05:17.763Z,102270.59
2022-10-19T08:07:46.878Z,102272.44
2022-10-19T08:10:14.511Z,102277.72
2022-10-19T08:12:43.644Z,102280.63
2022-10-19T08:15:11.462Z,102276.88
2022-10-19T08:17:39.687Z,102275.31
2022-10-19T08:20:08.636Z,102274.16
2022-10-19T08:22:36.709Z,102282.50
2022-10-19T08:25:05.159Z,102278.13
2022-10-19T08:27:32.974Z,102281.34
2022-10-19T08:30:01.991Z,102273.84
2022-10-19T08:32:29.649Z,102270.78
2022-10-19T08:34:57.342Z,102270.31
2022-10-19T08:37:40.720Z,102272.16
2022-10-19T08:40:19.019Z,102267.66
2022-10-19T08:42:59.011Z,102258.44
2022-10-19T08:45:43.181Z,102265.41
2022-10-19T08:48:24.738Z,102259.44
2022-10-19T08:50:53.920Z,102259.06
2022-10-19T08:53:31.617Z,102249.94
2022-10-19T08:56:22.126Z,102252.28
2022-10-19T08:59:13.234Z,102252.78
2022-10-19T09:01:47.832Z,102261.13
2022-10-19T09:04:22.760Z,102260.25
2022-10-19T09:07:03.531Z,102253.91
2022-10-19T09:09:34.427Z,102246.69
2022-10-19T09:12:06.160Z,102255.19
2022-10-19T09:14:39.798Z,102249.91
2022-10-19T09:17:14.352Z,102250.75
2022-10-19T09:19:42.374Z,102249.34
2022-10-19T09:22:19.858Z,102256.06
2022-10-19T09:24:51.663Z,102258.72
2022-10-19T09:27:23.194Z,102257.00
2022-10-19T09:29:54.781Z,102252.94
2022-10-19T09:32:28.683Z,102250.38
2022-10-19T09:35:01.044Z,102253.78
2022-10-19T09:40:02.504Z,102247.63
2022-10-19T09:42:33.408Z,102256.69
2022-10-19T09:45:03.771Z,102253.53
2022-10-19T09:47:36.580Z,102262.41
2022-10-19T09:50:14.880Z,102255.25
2022-10-19T09:52:43.757Z,102256.06
2022-10-19T09:55:24.714Z,102249.72
2022-10-19T09:58:00.651Z,102256.38
2022-10-19T10:00:35.031Z,102261.03
2022-10-19T10:03:05.839Z,102257.41
2022-10-19T10:05:35.444Z,102260.69
2022-10-19T10:08:03.698Z,102261.50
2022-10-19T10:10:37.582Z,102260.56
2022-10-19T10:13:06.261Z,102272.91
2022-10-19T10:15:42.968Z,102264.97
2022-10-19T10:18:15.362Z,102272.03
2022-10-19T10:20:58.752Z,102275.94
2022-10-19T10:23:29.008Z,102265.50
2022-10-19T10:25:57.861Z,102269.41
2022-10-19T10:28:27.648Z,102262.75
2022-10-19T10:31:00.311Z,102272.25
2022-10-19T10:33:44.184Z,102267.94
2022-10-19T10:36:13.429Z,102262.31
2022-10-19T10:38:45.940Z,102262.38
2022-10-19T10:41:17.580Z,102272.28
2022-10-19T10:43:53.976Z,102264.38
2022-10-19T10:46:25.502Z,102269.00
2022-10-19T10:48:58.599Z,102273.38
2022-10-19T10:51:34.062Z,102254.41
2022-10-19T10:54:16.746Z,102260.19
2022-10-19T10:56:45.841Z,102259.22
2022-10-19T10:59:19.794Z,102258.41
2022-10-19T11:02:02.600Z,102253.06
2022-10-19T11:04:38.003Z,102250.16
2022-10-19T11:07:17.422Z,102253.09
2022-10-19T11:09:51.822Z,102247.44
2022-10-19T11:12:25.923Z,102239.88
2022-10-19T11:14:59.937Z,102240.34
2022-10-19T11:17:30.623Z,102239.91
2022-10-19T11:19:59.760Z,102236.00
2022-10-19T11:22:31.055Z,102227.19
2022-10-19T11:25:11.240Z,102219.66
2022-10-19T11:27:48.071Z,102213.97
2022-10-19T11:30:19.485Z,102208.94
2022-10-19T11:32:57.185Z,102204.13
2022-10-19T11:35:53.004Z,102197.13
2022-10-19T11:38:33.221Z,102193.00
2022-10-19T11:41:17.814Z,102191.28
2022-10-19T11:43:57.447Z,102187.34
2022-10-19T11:46:30.025Z,102187.94
2022-10-19T11:49:11.972Z,102185.75
2022-10-19T11:51:49.647Z,102183.59
2022-10-19T11:54:29.920Z,102181.19
2022-10-19T11:57:08.303Z,102172.03
2022-10-19T11:59:50.806Z,102181.44
2022-10-19T12:02:44.972Z,102172.06
2022-10-19T12:05:18.355Z,102171.25
2022-10-19T12:08:02.519Z,102169.06
2022-10-19T12:10:37.849Z,102166.53
2022-10-19T12:13:09.922Z,102160.22
2022-10-19T12:15:42.611Z,102162.00
2022-10-19T12:18:17.128Z,102151.91
2022-10-19T12:20:50.377Z,102166.34
2022-10-19T12:23:27.830Z,102156.19
2022-10-19T12:25:58.922Z,102162.97
2022-10-19T12:28:30.912Z,102159.97
2022-10-19T12:31:00.539Z,102155.25
2022-10-19T12:33:32.811Z,102148.56
2022-10-19T12:36:11.695Z,102150.47
2022-10-19T12:38:59.702Z,102150.53
2022-10-19T12:41:32.510Z,102154.94
2022-10-19T12:44:20.837Z,102141.78
2022-10-19T12:46:56.426Z,102139.53
2022-10-19T12:49:44.753Z,102139.63
2022-10-19T12:52:13.794Z,102132.06
2022-10-19T12:54:44.143Z,102138.47
2022-10-19T12:57:29.707Z,102136.41
2022-10-19T13:00:07.389Z,102127.53
2022-10-19T13:02:37.512Z,102131.69
2022-10-19T13:05:06.497Z,102135.81
2022-10-19T13:07:36.968Z,102128.28
2022-10-19T13:10:14.618Z,102120.50
2022-10-19T13:12:45.722Z,102124.91
2022-10-19T13:15:52.121Z,102113.06
2022-10-19T13:19:10.462Z,102117.56
2022-10-19T13:21:46.099Z,102112.00
2022-10-19T13:24:30.261Z,102108.38
2022-10-19T13:27:28.079Z,102103.75
2022-10-19T13:29:56.206Z,102101.81
2022-10-19T13:32:37.537Z,102095.59
2022-10-19T13:35:31.954Z,102096.22
2022-10-19T13:38:26.259Z,102085.63
2022-10-19T13:41:07.756Z,102080.75
2022-10-19T13:43:41.968Z,102080.28
2022-10-19T13:46:13.282Z,102082.69
2022-10-19T13:49:13.698Z,102084.41
2022-10-19T13:51:53.658Z,102080.91
2022-10-19T13:54:45.465Z,102084.41
2022-10-19T13:57:21.456Z,102081.97
2022-10-19T14:00:16.417Z,102081.00
2022-10-19T14:02:56.436Z,102082.22
2022-10-19T14:05:43.133Z,102086.84
2022-10-19T14:08:28.287Z,102087.97
2022-10-19T14:11:01.650Z,102086.53
2022-10-19T14:13:30.550Z,102080.16
2022-10-19T14:16:02.825Z,102079.19
2022-10-19T14:18:33.246Z,102072.75
2022-10-19T14:21:03.094Z,102068.81
2022-10-19T14:23:33.048Z,102069.56
2022-10-19T14:26:04.786Z,102072.81
2022-10-19T14:28:33.422Z,102066.81
2022-10-19T14:31:05.595Z,102062.44
2022-10-19T14:33:35.579Z,102065.69
2022-10-19T14:36:03.547Z,102061.75
2022-10-19T14:38:35.238Z,102053.78
2022-10-19T14:41:03.100Z,102051.44
2022-10-19T14:43:32.410Z,102054.69
2022-10-19T14:46:15.845Z,102049.63
2022-10-19T14:48:46.087Z,102048.41
2022-10-19T14:51:28.778Z,102054.03
2022-10-19T14:54:00.689Z,102062.19
2022-10-19T14:56:34.840Z,102056.28
2022-10-19T14:59:07.675Z,102055.44
2022-10-19T15:01:37.001Z,102047.34
2022-10-19T15:04:05.211Z,102050.38
2022-10-19T15:06:35.623Z,102058.59
2022-10-19T15:09:07.374Z,102050.38
2022-10-19T15:11:41.654Z,102056.72
2022-10-19T15:14:13.887Z,102042.75
2022-10-19T15:16:45.612Z,102033.63
2022-10-19T15:19:19.408Z,102041.41
2022-10-19T15:21:47.315Z,102037.47
2022-10-19T15:24:27.030Z,102047.66
2022-10-19T15:27:08.627Z,102038.13
2022-10-19T15:29:36.996Z,102039.66
2022-10-19T15:32:16.752Z,102041.81
2022-10-19T15:34:45.528Z,102038.47
2022-10-19T15:37:19.613Z,102033.09
2022-10-19T15:39:48.011Z,102033.53
2022-10-19T15:42:23.842Z,102025.78
2022-10-19T15:44:51.731Z,102021.25
2022-10-19T15:47:23.602Z,102016.13
2022-10-19T15:50:00.385Z,102019.41
2022-10-19T15:52:29.981Z,102001.88
2022-10-19T15:54:59.566Z,102012.38
2022-10-19T15:57:30.695Z,102013.41
2022-10-19T16:00:01.481Z,102011.16
2022-10-19T16:02:30.557Z,102009.09
2022-10-19T16:04:58.246Z,102007.66
2022-10-19T16:07:28.982Z,102004.19
2022-10-19T16:09:57.174Z,102004.44
2022-10-19T16:12:26.321Z,102003.13
2022-10-19T16:14:54.191Z,102005.22
2022-10-19T16:17:22.334Z,102008.41
2022-10-19T16:19:51.965Z,102005.06
2022-10-19T16:22:19.627Z,102000.03
2022-10-19T16:24:47.349Z,102001.94
2022-10-19T16:27:16.157Z,102001.94
2022-10-19T16:29:44.514Z,102003.84
2022-10-19T16:32:12.343Z,102006.16
2022-10-19T16:34:41.020Z,102004.75
2022-10-19T16:37:10.014Z,102006.84
2022-10-19T16:39:37.693Z,102013.28
2022-10-19T16:42:05.430Z,102008.69
2022-10-19T16:44:33.260Z,102010.75
2022-10-19T16:47:00.940Z,102001.75
2022-10-19T16:49:28.774Z,101996.06
2022-10-19T16:51:57.664Z,101997.63
2022-10-19T16:54:27.599Z,101994.25
2022-10-19T16:56:56.296Z,101996.84
2022-10-19T16:59:23.993Z,102003.44
2022-10-19T17:01:51.767Z,102006.00
2022-10-19T17:04:19.518Z,102005.03
2022-10-19T17:06:47.274Z,101998.28
2022-10-19T17:09:41.210Z,102003.72
2022-10-19T17:12:04.285Z,102001.63
2022-10-19T17:14:32.191Z,102003.72
2022-10-19T17:16:59.941Z,102013.19
2022-10-19T17:19:27.632Z,102011.16
2022-10-19T17:21:57.536Z,102008.78
2022-10-19T17:24:25.300Z,102007.56
2022-10-19T17:26:54.134Z,102002.50
2022-10-19T17:29:24.043Z,102011.84
2022-10-19T17:31:51.864Z,102005.28
2022-10-19T17:34:19.727Z,102008.50
2022-10-19T17:36:47.908Z,102004.28
2022-10-19T17:39:18.036Z,102003.78
2022-10-19T17:41:46.688Z,101999.72
2022-10-19T17:44:14.852Z,102005.53
2022-10-19T17:46:44.238Z,102007.59
2022-10-19T17:49:12.392Z,102005.94
2022-10-19T17:51:41.149Z,102005.75
2022-10-19T17:54:11.674Z,102005.91
2022-10-19T17:56:40.431Z,102005.63
2022-10-19T17:59:09.061Z,102001.88
2022-10-19T18:01:37.465Z,102004.78
2022-10-19T18:04:06.937Z,102003.31
2022-10-19T18:06:36.343Z,102007.34
2022-10-19T18:09:07.047Z,102004.28
2022-10-19T18:11:38.345Z,102007.34
2022-10-19T18:14:07.812Z,102010.41
2022-10-19T18:16:37.364Z,102011.56
2022-10-19T18:19:07.355Z,102011.56
2022-10-19T18:21:38.658Z,102011.59
2022-10-19T18:24:11.310Z,102009.56
2022-10-19T18:26:42.001Z,102002.63
2022-10-19T18:29:13.107Z,102008.91
2022-10-19T18:31:41.412Z,102012.44
2022-10-19T18:34:14.968Z,102012.66
2022-10-19T18:36:42.826Z,102011.66
2022-10-19T18:39:12.506Z,102013.88
2022-10-19T18:41:41.349Z,102011.66
2022-10-19T18:44:12.335Z,102000.63
2022-10-19T18:46:40.867Z,102005.88
2022-10-19T18:49:12.540Z,102008.78
2022-10-19T18:51:40.407Z,102001.66
2022-10-19T18:54:08.169Z,101995.22
2022-10-19T18:56:36.384Z,101995.06
2022-10-19T18:59:05.073Z,101997.94
2022-10-19T19:01:32.866Z,101988.44
2022-10-19T19:04:07.786Z,101976.25
2022-10-19T19:06:38.332Z,101979.00
2022-10-19T19:09:08.394Z,101974.91
2022-10-19T19:11:38.343Z,101970.19
2022-10-19T19:14:08.042Z,101963.56
2022-10-19T19:16:37.425Z,101954.94
2022-10-19T19:19:06.052Z,101953.22
2022-10-19T19:21:35.486Z,101952.41
2022-10-19T19:24:07.139Z,101937.47
2022-10-19T19:26:39.701Z,101934.09
2022-10-19T19:29:07.435Z,101938.50
2022-10-19T19:31:35.554Z,101925.31
2022-10-19T19:34:05.681Z,101920.41
2022-10-19T19:36:33.538Z,101924.28
2022-10-19T19:39:01.242Z,101924.44
2022-10-19T19:41:31.143Z,101928.53
2022-10-19T19:43:58.977Z,101921.41
2022-10-19T19:46:27.245Z,101926.81
2022-10-19T19:48:59.873Z,101917.31
2022-10-19T19:51:29.016Z,101926.97
2022-10-19T19:53:57.091Z,101928.84
2022-10-19T19:56:25.290Z,101923.75
2022-10-19T19:58:57.441Z,101923.09
2022-10-19T20:01:26.358Z,101923.59
2022-10-19T20:03:54.098Z,101927.84
2022-10-19T20:06:25.120Z,101927.84
2022-10-19T20:08:54.228Z,101924.78
2022-10-19T20:11:22.225Z,101927.16
2022-10-19T20:13:49.936Z,101913.28
2022-10-19T20:16:25.123Z,101910.22
2022-10-19T20:18:59.693Z,101909.56
2022-10-19T20:21:27.664Z,101909.91
2022-10-19T20:23:55.373Z,101906.84
2022-10-19T20:26:24.716Z,101913.94
2022-10-19T20:28:52.933Z,101911.59
2022-10-19T20:31:22.509Z,101906.19
2022-10-19T20:33:50.838Z,101913.94
2022-10-19T20:36:21.106Z,101913.81
2022-10-19T20:38:50.853Z,101912.94
2022-10-19T20:41:19.709Z,101918.53
2022-10-19T20:43:47.745Z,101913.28
2022-10-19T20:46:17.654Z,101915.00
2022-10-19T20:48:46.691Z,101902.97
2022-10-19T20:51:16.355Z,101901.41
2022-10-19T20:53:46.384Z,101898.03
2022-10-19T20:56:16.176Z,101891.81
2022-10-19T20:58:45.088Z,101891.63
2022-10-19T21:01:15.032Z,101898.88
2022-10-19T21:03:48.818Z,101895.34
2022-10-19T21:06:16.835Z,101901.59
2022-10-19T21:08:44.588Z,101901.78
2022-10-19T21:11:13.934Z,101904.31
2022-10-19T21:13:41.852Z,101899.91
2022-10-19T21:16:10.941Z,101902.94
2022-10-19T21:18:38.998Z,101902.59
2022-10-19T21:21:16.216Z,101901.78
2022-10-19T21:23:44.850Z,101899.06
2022-10-19T21:26:13.575Z,101896.19
2022-10-19T21:28:45.813Z,101892.47
2022-10-19T21:31:13.474Z,101884.50
2022-10-19T21:33:41.128Z,101891.13
2022-10-19T21:36:10.067Z,101888.75
2022-10-19T21:38:39.371Z,101888.91
2022-10-19T21:41:09.173Z,101889.94
2022-10-19T21:43:37.109Z,101886.19
2022-10-19T21:46:07.030Z,101880.44
2022-10-19T21:48:35.539Z,101873.66
2022-10-19T21:51:13.753Z,101867.75
2022-10-19T21:53:42.814Z,101873.31
2022-10-19T21:56:10.733Z,101871.97
2022-10-19T21:58:38.342Z,101859.78
2022-10-19T22:01:06.433Z,101858.94
2022-10-19T22:03:34.911Z,101858.28
2022-10-19T22:06:02.513Z,101851.00
2022-10-19T22:08:30.282Z,101853.34
2022-10-19T22:10:59.303Z,101844.56
2022-10-19T22:13:26.944Z,101835.91
2022-10-19T22:15:54.571Z,101830.50
2022-10-19T22:18:22.216Z,101820.84
2022-10-19T22:20:49.852Z,101821.38
2022-10-19T22:23:17.526Z,101822.03
2022-10-19T22:25:45.136Z,101809.16
2022-10-19T22:28:14.139Z,101810.00
2022-10-19T22:30:44.890Z,101804.91
2022-10-19T22:33:12.519Z,101806.63
2022-10-19T22:35:40.151Z,101798.81
2022-10-19T22:38:07.820Z,101799.16
2022-10-19T22:40:35.483Z,101797.13
2022-10-19T22:43:06.130Z,101796.28
2022-10-19T22:45:35.818Z,101791.72
2022-10-19T22:48:03.469Z,101789.00
2022-10-19T22:50:31.113Z,101789.16
2022-10-19T22:52:58.742Z,101787.81
2022-10-19T22:55:26.399Z,101781.03
2022-10-19T22:57:53.985Z,101782.22
2022-10-19T23:00:21.616Z,101782.53
2022-10-19T23:02:50.648Z,101786.28
2022-10-19T23:05:18.419Z,101786.44
2022-10-19T23:07:46.027Z,101785.59
2022-10-19T23:10:13.851Z,101789.63
2022-10-19T23:12:41.526Z,101799.09
2022-10-19T23:15:10.516Z,101797.09
2022-10-19T23:17:38.367Z,101799.81
2022-10-19T23:20:08.898Z,101797.25
2022-10-19T23:22:36.579Z,101797.41
2022-10-19T23:25:04.817Z,101794.84
2022-10-19T23:27:32.594Z,101791.63
2022-10-19T23:30:00.305Z,101784.38
2022-10-19T23:32:27.894Z,101786.38
2022-10-19T23:34:55.552Z,101785.38
2022-10-19T23:37:24.627Z,101780.63
2022-10-19T23:39:52.261Z,101789.59
2022-10-19T23:42:19.957Z,101776.75
2022-10-19T23:44:47.637Z,101784.56
2022-10-19T23:47:15.361Z,101773.75
2022-10-19T23:49:43.036Z,101778.63
2022-10-19T23:52:10.723Z,101773.38
2022-10-19T23:54:39.767Z,101774.03
2022-10-19T23:57:07.557Z,101763.72
2022-10-19T23:59:35.197Z,101756.44
